createdAt,value
2023-03-06T00:00:25.819Z,9.90
2023-03-06T00:02:58.625Z,7.23
2023-03-06T00:05:41.276Z,7.47
2023-03-06T00:08:10.507Z,6.90
2023-03-06T00:10:41.664Z,7.93
2023-03-06T00:13:16.719Z,8.03
2023-03-06T00:15:45.314Z,9.00
2023-03-06T00:18:16.315Z,7.53
2023-03-06T00:20:47.392Z,9.27
2023-03-06T00:23:15.800Z,6.07
2023-03-06T00:25:44.822Z,8.07
2023-03-06T00:28:18.528Z,8.67
2023-03-06T00:30:49.036Z,7.77
2023-03-06T00:33:19.198Z,7.50
2023-03-06T00:35:50.309Z,6.50
2023-03-06T00:38:20.714Z,8.63
2023-03-06T00:40:49.816Z,10.43
2023-03-06T00:43:22.431Z,10.23
2023-03-06T00:45:51.992Z,8.37
2023-03-06T00:48:21.631Z,8.53
2023-03-06T00:50:52.684Z,7.60
2023-03-06T00:53:31.099Z,6.70
2023-03-06T00:55:59.957Z,7.90
2023-03-06T00:58:37.309Z,8.87
2023-03-06T01:01:12.710Z,7.90
2023-03-06T01:03:41.575Z,6.83
2023-03-06T01:06:10.688Z,8.10
2023-03-06T01:08:39.387Z,10.10
2023-03-06T01:11:08.209Z,6.17
2023-03-06T01:13:38.723Z,7.37
2023-03-06T01:16:09.327Z,10.53
2023-03-06T01:18:44.705Z,9.63
2023-03-06T01:21:16.879Z,7.40
2023-03-06T01:23:45.250Z,6.53
2023-03-06T01:26:15.780Z,10.00
2023-03-06T01:28:57.490Z,9.50
2023-03-06T01:31:29.858Z,8.13
2023-03-06T01:34:00.633Z,8.77
2023-03-06T01:36:31.207Z,8.17
2023-03-06T01:39:02.825Z,6.97
2023-03-06T01:41:32.583Z,6.47
2023-03-06T01:44:02.342Z,6.27
2023-03-06T01:46:46.996Z,6.50
2023-03-06T01:49:23.770Z,6.57
2023-03-06T01:51:57.085Z,7.07
2023-03-06T01:54:29.396Z,9.20
2023-03-06T01:57:09.966Z,7.67
2023-03-06T01:59:43.358Z,7.53
2023-03-06T02:02:14.413Z,9.03
2023-03-06T02:04:47.166Z,6.97
2023-03-06T02:07:20.011Z,6.60
2023-03-06T02:09:50.230Z,12.53
2023-03-06T02:12:21.298Z,5.23
2023-03-06T02:14:51.295Z,9.03
2023-03-06T02:17:25.198Z,8.27
2023-03-06T02:20:02.525Z,11.03
2023-03-06T02:22:38.385Z,7.80
2023-03-06T02:25:16.729Z,9.20
2023-03-06T02:27:47.571Z,10.77
2023-03-06T02:30:20.026Z,7.07
2023-03-06T02:32:48.602Z,7.37
2023-03-06T02:35:21.305Z,8.53
2023-03-06T02:37:53.461Z,8.57
2023-03-06T02:40:25.289Z,8.73
2023-03-06T02:42:59.805Z,10.27
2023-03-06T02:45:37.475Z,8.30
2023-03-06T02:48:05.883Z,9.50
2023-03-06T02:50:36.238Z,7.70
2023-03-06T02:53:13.666Z,8.33
2023-03-06T02:55:43.549Z,8.33
2023-03-06T02:58:21.460Z,7.27
2023-03-06T03:00:52.867Z,7.73
2023-03-06T03:03:26.222Z,8.40
2023-03-06T03:05:58.693Z,8.67
2023-03-06T03:08:27.278Z,7.90
2023-03-06T03:10:58.730Z,7.90
2023-03-06T03:13:29.635Z,10.23
2023-03-06T03:16:04.762Z,9.13
2023-03-06T03:18:38.486Z,8.93
2023-03-06T03:21:14.344Z,8.80
2023-03-06T03:23:43.298Z,9.03
2023-03-06T03:26:15.060Z,10.20
2023-03-06T03:28:46.113Z,9.87
2023-03-06T03:31:16.783Z,6.83
2023-03-06T03:33:46.650Z,8.77
2023-03-06T03:36:14.481Z,8.13
2023-03-06T03:38:43.928Z,8.37
2023-03-06T03:41:12.400Z,8.10
2023-03-06T03:43:42.702Z,12.60
2023-03-06T03:46:13.991Z,7.23
2023-03-06T03:48:42.168Z,7.83
2023-03-06T03:51:16.906Z,9.40
2023-03-06T03:53:46.786Z,9.07
2023-03-06T03:56:18.465Z,9.27
2023-03-06T03:58:46.708Z,9.70
2023-03-06T04:01:19.131Z,9.40
2023-03-06T04:03:48.692Z,8.40
2023-03-06T04:06:17.904Z,8.37
2023-03-06T04:08:47.890Z,11.33
2023-03-06T04:11:17.226Z,9.47
2023-03-06T04:13:46.764Z,10.83
2023-03-06T04:16:16.403Z,11.63
2023-03-06T04:18:45.493Z,8.63
2023-03-06T04:21:16.562Z,7.97
2023-03-06T04:23:48.458Z,9.70
2023-03-06T04:26:20.494Z,10.33
2023-03-06T04:28:48.577Z,10.87
2023-03-06T04:31:25.100Z,10.13
2023-03-06T04:33:54.518Z,7.73
2023-03-06T04:36:29.128Z,11.17
2023-03-06T04:39:00.554Z,10.33
2023-03-06T04:41:29.892Z,9.47
2023-03-06T04:44:06.202Z,9.53
2023-03-06T04:46:37.829Z,10.47
2023-03-06T04:49:11.879Z,8.47
2023-03-06T04:51:40.257Z,7.87
2023-03-06T04:54:13.873Z,8.50
2023-03-06T04:56:44.311Z,7.70
2023-03-06T04:59:14.816Z,10.67
2023-03-06T05:01:44.539Z,9.37
2023-03-06T05:04:13.908Z,10.03
2023-03-06T05:06:42.382Z,11.30
2023-03-06T05:09:12.943Z,12.57
2023-03-06T05:11:44.371Z,10.20
2023-03-06T05:14:15.724Z,10.10
2023-03-06T05:16:48.021Z,9.10
2023-03-06T05:19:19.181Z,11.27
2023-03-06T05:21:47.633Z,8.73
2023-03-06T05:24:16.504Z,9.97
2023-03-06T05:26:49.636Z,11.33
2023-03-06T05:29:26.843Z,10.03
2023-03-06T05:32:01.087Z,10.43
2023-03-06T05:34:28.941Z,11.60
2023-03-06T05:37:02.317Z,11.67
2023-03-06T05:39:34.626Z,11.17
2023-03-06T05:42:04.422Z,8.53
2023-03-06T05:44:34.634Z,11.87
2023-03-06T05:47:04.862Z,9.83
2023-03-06T05:49:35.430Z,9.70
2023-03-06T05:52:07.682Z,9.47
2023-03-06T05:54:41.814Z,11.03
2023-03-06T05:57:10.920Z,11.20
2023-03-06T05:59:46.330Z,10.10
2023-03-06T06:02:17.803Z,8.53
2023-03-06T06:04:47.689Z,8.97
2023-03-06T06:07:18.253Z,11.87
2023-03-06T06:09:46.712Z,10.77
2023-03-06T06:12:15.105Z,10.63
2023-03-06T06:14:47.104Z,11.63
2023-03-06T06:17:18.030Z,10.53
2023-03-06T06:19:46.413Z,9.77
2023-03-06T06:22:14.402Z,10.13
2023-03-06T06:24:42.812Z,11.50
2023-03-06T06:27:13.285Z,10.73
2023-03-06T06:29:42.720Z,9.63
2023-03-06T06:32:11.660Z,10.10
2023-03-06T06:34:43.600Z,9.13
2023-03-06T06:37:21.565Z,11.97
2023-03-06T06:39:51.741Z,11.87
2023-03-06T06:42:36.988Z,15.67
2023-03-06T06:45:11.691Z,13.90
2023-03-06T06:47:42.427Z,11.83
2023-03-06T06:50:16.351Z,9.77
2023-03-06T06:52:44.544Z,11.77
2023-03-06T06:55:14.846Z,10.63
2023-03-06T06:57:49.341Z,9.90
2023-03-06T07:00:19.843Z,11.40
2023-03-06T07:02:51.651Z,8.63
2023-03-06T07:05:26.714Z,9.43
2023-03-06T07:07:57.104Z,14.13
2023-03-06T07:10:26.834Z,9.73
2023-03-06T07:12:56.729Z,12.40
2023-03-06T07:15:27.141Z,11.47
2023-03-06T07:17:58.671Z,11.07
2023-03-06T07:20:32.347Z,10.20
2023-03-06T07:23:01.702Z,10.67
2023-03-06T07:25:30.034Z,14.60
2023-03-06T07:27:58.075Z,9.90
2023-03-06T07:30:27.425Z,12.40
2023-03-06T07:32:57.126Z,10.50
2023-03-06T07:35:34.787Z,9.47
2023-03-06T07:38:05.261Z,10.37
2023-03-06T07:40:35.634Z,11.40
2023-03-06T07:43:18.650Z,10.00
2023-03-06T07:45:56.277Z,14.20
2023-03-06T07:48:26.218Z,14.23
2023-03-06T07:51:08.146Z,12.33
2023-03-06T07:53:38.845Z,12.93
2023-03-06T07:56:08.856Z,12.80
2023-03-06T07:58:38.193Z,11.10
2023-03-06T08:03:54.375Z,13.60
2023-03-06T08:06:26.509Z,14.10
2023-03-06T08:08:56.143Z,11.33
2023-03-06T08:11:29.951Z,11.60
2023-03-06T08:14:00.489Z,14.43
2023-03-06T08:16:34.537Z,12.83
2023-03-06T08:19:06.016Z,10.57
2023-03-06T08:21:39.022Z,12.17
2023-03-06T08:24:12.905Z,11.03
2023-03-06T08:26:44.098Z,9.37
2023-03-06T08:29:13.324Z,12.13
2023-03-06T08:31:43.781Z,10.83
2023-03-06T08:34:17.378Z,11.53
2023-03-06T08:36:49.579Z,11.30
2023-03-06T08:39:17.747Z,12.97
2023-03-06T08:41:47.879Z,12.30
2023-03-06T08:44:16.289Z,14.03
2023-03-06T08:46:44.013Z,10.83
2023-03-06T08:49:16.044Z,11.00
2023-03-06T08:51:47.125Z,14.53
2023-03-06T08:54:18.437Z,11.73
2023-03-06T08:56:50.941Z,11.60
2023-03-06T08:59:19.977Z,11.43
2023-03-06T09:01:48.214Z,12.43
2023-03-06T09:04:16.171Z,9.87
2023-03-06T09:06:47.327Z,9.87
2023-03-06T09:09:18.890Z,16.20
2023-03-06T09:11:56.261Z,11.03
2023-03-06T09:14:30.054Z,13.17
2023-03-06T09:16:58.721Z,12.43
2023-03-06T09:19:27.586Z,11.93
2023-03-06T09:22:00.993Z,11.27
2023-03-06T09:24:34.189Z,11.57
2023-03-06T09:27:03.854Z,13.73
2023-03-06T09:29:33.006Z,12.57
2023-03-06T09:32:03.993Z,12.27
2023-03-06T09:34:33.326Z,12.53
2023-03-06T09:37:04.802Z,13.07
2023-03-06T09:39:38.391Z,13.17
2023-03-06T09:42:16.083Z,12.47
2023-03-06T09:44:52.980Z,11.83
2023-03-06T09:47:48.853Z,14.00
2023-03-06T09:50:32.975Z,15.20
2023-03-06T09:53:21.905Z,10.80
2023-03-06T09:56:01.647Z,13.57
2023-03-06T09:58:39.243Z,12.43
2023-03-06T10:01:16.412Z,14.30
2023-03-06T10:03:53.208Z,12.73
2023-03-06T10:06:29.880Z,12.03
2023-03-06T10:09:03.704Z,12.23
2023-03-06T10:11:43.333Z,13.60
2023-03-06T10:14:25.576Z,12.30
2023-03-06T10:16:54.296Z,10.70
2023-03-06T10:19:25.893Z,12.97
2023-03-06T10:22:00.972Z,12.47
2023-03-06T10:24:46.614Z,10.73
2023-03-06T10:27:23.682Z,13.43
2023-03-06T10:30:04.150Z,12.43
2023-03-06T10:32:48.811Z,12.53
2023-03-06T10:35:21.601Z,12.10
2023-03-06T10:38:12.887Z,12.97
2023-03-06T10:40:47.938Z,13.67
2023-03-06T10:43:17.960Z,12.17
2023-03-06T10:45:55.014Z,12.97
2023-03-06T10:48:26.498Z,14.43
2023-03-06T10:51:18.496Z,14.50
2023-03-06T10:54:00.111Z,11.33
2023-03-06T10:56:31.510Z,14.67
2023-03-06T10:59:15.599Z,14.43
2023-03-06T11:01:46.240Z,13.80
2023-03-06T11:04:23.409Z,14.47
2023-03-06T11:07:08.379Z,17.37
2023-03-06T11:09:47.704Z,14.33
2023-03-06T11:12:41.263Z,14.17
2023-03-06T11:15:21.163Z,12.00
2023-03-06T11:17:54.387Z,12.60
2023-03-06T11:20:49.961Z,9.20
2023-03-06T11:23:22.549Z,12.40
2023-03-06T11:25:55.371Z,11.53
2023-03-06T11:28:29.532Z,12.73
2023-03-06T11:31:12.551Z,11.97
2023-03-06T11:33:43.912Z,12.90
2023-03-06T11:36:19.108Z,11.97
2023-03-06T11:38:51.495Z,11.30
2023-03-06T11:41:32.753Z,11.73
2023-03-06T11:44:12.863Z,12.60
2023-03-06T11:46:48.789Z,11.30
2023-03-06T11:49:26.576Z,9.03
2023-03-06T11:51:57.762Z,9.67
2023-03-06T11:54:27.692Z,10.40
2023-03-06T11:57:00.884Z,9.27
2023-03-06T11:59:56.117Z,14.30
2023-03-06T12:02:40.063Z,9.93
2023-03-06T12:05:27.654Z,15.10
2023-03-06T12:08:06.719Z,9.47
2023-03-06T12:10:41.044Z,13.57
2023-03-06T12:13:37.148Z,10.67
2023-03-06T12:16:36.833Z,10.60
2023-03-06T12:19:24.290Z,11.80
2023-03-06T12:22:11.672Z,10.50
2023-03-06T12:25:03.013Z,8.23
2023-03-06T12:27:49.523Z,6.73
2023-03-06T12:30:40.678Z,10.70
2023-03-06T12:33:25.583Z,8.80
2023-03-06T12:36:10.059Z,8.67
2023-03-06T12:38:54.742Z,12.60
2023-03-06T12:41:37.150Z,11.20
2023-03-06T12:44:39.163Z,14.80
2023-03-06T12:47:22.252Z,12.87
2023-03-06T12:49:57.068Z,9.23
2023-03-06T12:52:32.912Z,11.43
2023-03-06T12:55:09.261Z,9.00
2023-03-06T12:57:44.579Z,9.40
2023-03-06T13:00:55.317Z,10.10
2023-03-06T13:03:39.680Z,12.43
2023-03-06T13:06:44.986Z,9.40
2023-03-06T13:09:35.383Z,9.13
2023-03-06T13:12:27.655Z,9.30
2023-03-06T13:15:00.693Z,9.43
2023-03-06T13:17:38.149Z,8.10
2023-03-06T13:20:33.949Z,9.17
2023-03-06T13:23:43.826Z,7.47
2023-03-06T13:27:05.968Z,9.37
2023-03-06T13:29:54.409Z,11.67
2023-03-06T13:32:32.696Z,10.17
2023-03-06T13:35:02.603Z,11.47
2023-03-06T13:37:50.976Z,8.50
2023-03-06T13:40:35.424Z,9.00
2023-03-06T13:43:25.301Z,8.33
2023-03-06T13:45:53.512Z,8.70
2023-03-06T13:48:43.735Z,7.87
2023-03-06T13:51:27.575Z,10.40
2023-03-06T13:54:25.029Z,9.73
2023-03-06T13:57:21.691Z,12.10
2023-03-06T14:00:26.272Z,9.70
2023-03-06T14:03:31.135Z,11.37
2023-03-06T14:06:02.460Z,11.43
2023-03-06T14:08:35.792Z,10.77
2023-03-06T14:11:14.742Z,11.47
2023-03-06T14:14:34.549Z,12.27
2023-03-06T14:17:05.253Z,12.00
2023-03-06T14:19:47.653Z,11.63
2023-03-06T14:22:22.063Z,12.20
2023-03-06T14:25:04.412Z,11.13
2023-03-06T14:27:50.178Z,9.83
2023-03-06T14:30:23.145Z,13.33
2023-03-06T14:32:59.511Z,14.90
2023-03-06T14:35:30.144Z,12.07
2023-03-06T14:38:11.093Z,11.20
2023-03-06T14:40:46.624Z,11.83
2023-03-06T14:43:23.829Z,11.73
2023-03-06T14:45:55.993Z,15.53
2023-03-06T14:48:41.808Z,11.50
2023-03-06T14:51:22.430Z,10.47
2023-03-06T14:53:55.031Z,13.77
2023-03-06T14:56:28.306Z,11.07
2023-03-06T14:58:59.632Z,10.57
2023-03-06T15:01:37.435Z,10.43
2023-03-06T15:04:12.524Z,12.53
2023-03-06T15:06:45.565Z,14.00
2023-03-06T15:09:26.453Z,14.00
2023-03-06T15:11:58.191Z,10.27
2023-03-06T15:14:35.866Z,14.83
2023-03-06T15:17:23.932Z,9.80
2023-03-06T15:19:54.597Z,11.03
2023-03-06T15:22:32.050Z,12.03
2023-03-06T15:25:31.348Z,11.77
2023-03-06T15:28:02.418Z,14.43
2023-03-06T15:30:35.511Z,6.77
2023-03-06T15:33:18.562Z,11.30
2023-03-06T15:35:59.081Z,11.80
2023-03-06T15:38:37.306Z,10.63
2023-03-06T15:41:08.293Z,13.10
2023-03-06T15:43:41.715Z,12.00
2023-03-06T15:46:11.988Z,13.43
2023-03-06T15:48:40.822Z,11.77
2023-03-06T15:51:10.542Z,14.77
2023-03-06T15:53:44.005Z,13.57
2023-03-06T15:56:23.387Z,13.67
2023-03-06T15:58:53.275Z,13.33
2023-03-06T16:01:25.632Z,11.07
2023-03-06T16:03:56.720Z,11.20
2023-03-06T16:06:28.297Z,11.03
2023-03-06T16:08:56.615Z,11.70
2023-03-06T16:11:43.329Z,10.60
2023-03-06T16:14:25.974Z,9.53
2023-03-06T16:16:56.863Z,9.57
2023-03-06T16:19:28.568Z,12.87
2023-03-06T16:21:59.302Z,11.97
2023-03-06T16:24:30.098Z,11.37
2023-03-06T16:27:10.204Z,11.60
2023-03-06T16:29:45.592Z,13.77
2023-03-06T16:32:18.427Z,12.27
2023-03-06T16:34:54.601Z,10.63
2023-03-06T16:37:28.167Z,10.07
2023-03-06T16:39:59.366Z,12.10
2023-03-06T16:42:35.168Z,10.23
2023-03-06T16:45:09.265Z,10.67
2023-03-06T16:47:40.574Z,13.10
2023-03-06T16:50:27.029Z,12.90
2023-03-06T16:52:59.090Z,10.17
2023-03-06T16:55:31.106Z,8.17
2023-03-06T16:58:09.486Z,12.60
2023-03-06T17:00:37.619Z,11.50
2023-03-06T17:03:13.627Z,13.20
2023-03-06T17:05:44.088Z,11.23
2023-03-06T17:08:15.613Z,11.90
2023-03-06T17:10:43.888Z,12.73
2023-03-06T17:13:16.901Z,11.07
2023-03-06T17:15:56.124Z,9.90
2023-03-06T17:18:25.704Z,8.67
2023-03-06T17:20:54.671Z,11.30
2023-03-06T17:23:28.607Z,9.20
2023-03-06T17:26:04.667Z,11.73
2023-03-06T17:28:42.336Z,9.87
2023-03-06T17:31:16.373Z,7.63
2023-03-06T17:33:47.295Z,7.93
2023-03-06T17:36:20.722Z,13.37
2023-03-06T17:38:49.776Z,11.30
2023-03-06T17:41:18.464Z,8.77
2023-03-06T17:43:49.874Z,10.07
2023-03-06T17:46:19.260Z,15.90
2023-03-06T17:48:48.626Z,10.20
2023-03-06T17:51:17.835Z,7.80
2023-03-06T17:53:49.220Z,10.80
2023-03-06T17:56:34.940Z,9.87
2023-03-06T17:59:12.180Z,9.47
2023-03-06T18:01:45.907Z,9.93
2023-03-06T18:04:16.842Z,9.37
2023-03-06T18:06:57.339Z,9.30
2023-03-06T18:09:30.992Z,8.33
2023-03-06T18:11:59.579Z,10.27
2023-03-06T18:14:31.927Z,8.43
2023-03-06T18:17:04.602Z,8.90
2023-03-06T18:19:33.045Z,9.37
2023-03-06T18:22:04.625Z,11.10
2023-03-06T18:24:33.899Z,11.40
2023-03-06T18:27:02.267Z,9.60
2023-03-06T18:29:39.264Z,8.93
2023-03-06T18:32:10.965Z,11.37
2023-03-06T18:34:42.317Z,11.27
2023-03-06T18:37:13.855Z,11.53
2023-03-06T18:39:44.433Z,9.33
2023-03-06T18:42:13.427Z,10.37
2023-03-06T18:44:47.925Z,6.80
2023-03-06T18:47:21.277Z,10.70
2023-03-06T18:49:57.593Z,10.80
2023-03-06T18:52:27.089Z,11.07
2023-03-06T18:54:57.997Z,8.30
2023-03-06T18:57:29.275Z,9.80
2023-03-06T19:00:00.202Z,10.70
2023-03-06T19:02:29.301Z,10.43
2023-03-06T19:05:04.659Z,9.67
2023-03-06T19:07:37.107Z,12.27
2023-03-06T19:10:15.063Z,11.23
2023-03-06T19:12:51.592Z,10.67
2023-03-06T19:15:23.415Z,11.63
2023-03-06T19:17:54.507Z,11.27
2023-03-06T19:20:26.706Z,10.63
2023-03-06T19:22:59.145Z,9.43
2023-03-06T19:25:30.896Z,11.97
2023-03-06T19:28:02.280Z,14.27
2023-03-06T19:30:47.971Z,12.97
2023-03-06T19:33:18.954Z,13.40
2023-03-06T19:36:12.047Z,14.00
2023-03-06T19:38:41.509Z,13.63
2023-03-06T19:41:14.160Z,11.87
2023-03-06T19:43:46.425Z,10.83
2023-03-06T19:46:24.990Z,12.83
2023-03-06T19:48:59.800Z,12.70
2023-03-06T19:51:30.250Z,13.60
2023-03-06T19:54:06.093Z,13.70
2023-03-06T19:56:39.257Z,16.47
2023-03-06T19:59:10.402Z,15.30
2023-03-06T20:01:40.638Z,15.13
2023-03-06T20:04:10.649Z,14.53
2023-03-06T20:06:47.187Z,12.37
2023-03-06T20:09:15.145Z,14.80
2023-03-06T20:11:46.192Z,15.20
2023-03-06T20:14:17.915Z,14.87
2023-03-06T20:16:50.136Z,15.50
2023-03-06T20:19:23.025Z,13.27
2023-03-06T20:21:54.155Z,13.50
2023-03-06T20:24:25.972Z,14.57
2023-03-06T20:26:57.736Z,8.90
2023-03-06T20:29:28.499Z,16.03
2023-03-06T20:32:01.226Z,16.60
2023-03-06T20:34:32.160Z,17.70
2023-03-06T20:37:00.342Z,15.93
2023-03-06T20:39:30.985Z,12.83
2023-03-06T20:42:00.124Z,16.90
2023-03-06T20:44:28.800Z,14.73
2023-03-06T20:47:01.749Z,18.07
2023-03-06T20:49:31.486Z,12.97
2023-03-06T20:51:59.411Z,16.40
2023-03-06T20:54:28.227Z,17.20
2023-03-06T20:56:56.205Z,14.97
2023-03-06T20:59:25.865Z,19.90
2023-03-06T21:01:56.772Z,17.40
2023-03-06T21:04:28.501Z,17.53
2023-03-06T21:06:56.537Z,16.57
2023-03-06T21:09:25.146Z,17.53
2023-03-06T21:11:55.136Z,19.33
2023-03-06T21:14:27.663Z,19.23
2023-03-06T21:16:56.277Z,16.00
2023-03-06T21:19:29.752Z,14.03
2023-03-06T21:21:59.558Z,17.20
2023-03-06T21:24:28.496Z,16.30
2023-03-06T21:26:57.035Z,19.20
2023-03-06T21:29:25.118Z,18.13
2023-03-06T21:31:55.275Z,14.40
2023-03-06T21:34:23.705Z,16.70
2023-03-06T21:36:52.643Z,18.33
2023-03-06T21:39:23.570Z,18.30
2023-03-06T21:41:54.810Z,11.37
2023-03-06T21:44:23.734Z,20.07
2023-03-06T21:46:52.526Z,17.87
2023-03-06T21:49:22.978Z,19.67
2023-03-06T21:51:52.929Z,20.10
2023-03-06T21:54:23.089Z,20.13
2023-03-06T21:56:56.406Z,22.10
2023-03-06T21:59:28.805Z,14.63
2023-03-06T22:02:00.468Z,19.40
2023-03-06T22:04:29.401Z,17.93
2023-03-06T22:07:01.198Z,16.93
2023-03-06T22:09:31.315Z,18.73
2023-03-06T22:12:00.474Z,19.30
2023-03-06T22:14:32.987Z,18.37
2023-03-06T22:17:10.446Z,22.53
2023-03-06T22:19:38.287Z,21.13
2023-03-06T22:22:10.775Z,22.00
2023-03-06T22:24:41.302Z,15.23
2023-03-06T22:27:11.897Z,23.33
2023-03-06T22:29:39.675Z,20.43
2023-03-06T22:32:08.887Z,24.00
2023-03-06T22:34:37.193Z,21.57
2023-03-06T22:37:09.095Z,22.10
2023-03-06T22:39:42.280Z,26.63
2023-03-06T22:42:18.133Z,26.33
2023-03-06T22:44:47.190Z,18.07
2023-03-06T22:47:15.588Z,24.53
2023-03-06T22:49:43.766Z,20.60
2023-03-06T22:52:12.934Z,17.73
2023-03-06T22:54:44.053Z,18.90
2023-03-06T22:57:22.350Z,17.93
2023-03-06T22:59:52.048Z,23.63
2023-03-06T23:02:24.314Z,21.50
2023-03-06T23:04:56.194Z,23.03
2023-03-06T23:07:24.752Z,21.97
2023-03-06T23:09:54.597Z,17.17
2023-03-06T23:12:25.509Z,24.60
2023-03-06T23:14:54.995Z,26.80
2023-03-06T23:17:24.788Z,27.83
2023-03-06T23:19:53.348Z,24.37
2023-03-06T23:22:24.051Z,24.17
2023-03-06T23:24:58.596Z,21.57
2023-03-06T23:27:29.340Z,24.97
2023-03-06T23:30:01.452Z,20.77
2023-03-06T23:32:31.353Z,25.17
2023-03-06T23:35:00.955Z,26.10
2023-03-06T23:37:29.758Z,26.23
2023-03-06T23:40:01.238Z,26.10
2023-03-06T23:42:31.638Z,24.33
2023-03-06T23:45:05.704Z,22.40
2023-03-06T23:47:41.215Z,26.03
2023-03-06T23:50:11.978Z,26.27
2023-03-06T23:52:41.629Z,26.27
2023-03-06T23:55:11.899Z,27.43
2023-03-06T23:57:46.876Z,28.83
